Puerto Montt, Puerto Montt El Tepual Airport (SCTE)

NamePuerto Montt El Tepual Airport
CityPuerto Montt
CountryChile
ICAOSCTE
IATAPMC
Altitude90 m
CoordinatesGoogle Map
Live Air TrafficLiveATC.net
METARSCTE 211200Z 24004KT 9999 SCT050 BKN056 08/06 Q1028 NOSIG
2019-10-21 12:00:00 Wind: Southwest (240°) 2.06 m/s - Visibility: > 10000 m - Temperature: 8 °C - Dew point: 6 °C - Humidity: 87.3% - Pressure: 1028 hPa
Statistics

The table below shows the detailed information of all flights to/from Puerto Montt, Puerto Montt El Tepual Airport (SCTE).